Time;durP1;ratioP1;P1;durP2;ratioP2;P2;SDS_P1;SDS_P2;PMS_P1;PMS_P2;Temp;Humidity;BMP_temperature;BMP_pressure;BME280_temperature;BME280_humidity;BME280_pressure;Samples;Min_cycle;Max_cycle;Signal;HPM_P1;HPM_P2
2022/01/14 00:00:28;;;;;;;31.88;20.65;;;;;;;0.66;53.44;102954.22;2582753;23;20153;-64
2022/01/14 00:01:29;;;;;;;37.40;20.23;;;;;;;0.04;52.58;102849.63;2583117;23;20186;-63
2022/01/14 00:02:29;;;;;;;30.73;19.97;;;;;;;0.77;52.64;102956.41;2582877;23;20277;-64
2022/01/14 00:03:30;;;;;;;30.63;21.07;;;;;;;0.80;52.79;102971.38;2583247;23;20197;-63
2022/01/14 00:04:30;;;;;;;29.33;19.47;;;;;;;0.78;52.63;102968.94;2582622;23;20155;-63
2022/01/14 00:05:31;;;;;;;31.63;20.33;;;;;;;0.68;52.79;102961.00;2582895;23;20150;-63
2022/01/14 00:06:32;;;;;;;31.50;20.73;;;;;;;0.25;52.92;102904.47;2582090;23;20239;-64
2022/01/14 00:07:32;;;;;;;28.93;18.63;;;;;;;0.66;53.09;102956.97;2582508;23;20620;-64
2022/01/14 00:08:32;;;;;;;29.40;20.00;;;;;;;0.70;52.53;102947.88;2569617;23;20166;-63
2022/01/14 00:09:35;;;;;;;30.17;19.23;;;;;;;0.73;52.60;102960.09;2569816;23;20160;-64
2022/01/14 00:10:36;;;;;;;28.42;19.00;;;;;;;0.35;52.77;102901.50;2569436;23;20200;-64
2022/01/14 00:11:45;;;;;;;29.08;19.40;;;;;;;0.09;52.68;102846.78;2570009;23;20164;-63
2022/01/14 00:12:52;;;;;;;30.42;20.23;;;;;;;0.63;52.88;102942.00;2582727;23;20146;-64
2022/01/14 00:14:07;;;;;;;29.40;19.25;;;;;;;0.68;52.50;102952.00;2582915;23;20676;-64
2022/01/14 00:15:40;;;;;;;32.30;19.70;;;;;;;0.69;52.63;102945.44;2583318;23;20134;-64
2022/01/14 00:16:34;;;;;;;28.50;18.75;;;;;;;0.70;52.63;102936.13;2578244;23;20162;-63
2022/01/14 00:17:35;;;;;;;28.10;19.10;;;;;;;0.72;52.40;102953.81;2583104;23;20148;-64
2022/01/14 00:18:35;;;;;;;30.70;19.53;;;;;;;0.66;52.74;102948.78;2582504;23;20880;-64
2022/01/14 00:19:37;;;;;;;29.27;19.97;;;;;;;0.47;53.04;102927.13;2583007;23;20157;-64
2022/01/14 00:20:38;;;;;;;30.65;19.67;;;;;;;-0.62;52.67;102729.63;2582959;23;20154;-64
2022/01/14 00:21:41;;;;;;;27.97;19.63;;;;;;;0.61;53.07;102946.97;2583351;23;20589;-63
2022/01/14 00:22:41;;;;;;;30.90;20.45;;;;;;;0.63;52.63;102938.50;2582788;23;20150;-64
2022/01/14 00:23:44;;;;;;;30.37;20.20;;;;;;;0.49;52.88;102929.56;2582851;23;20500;-63
2022/01/14 00:32:45;;;;;;;24.13;15.73;;;;;;;0.64;52.29;102919.09;2583146;23;20384;-64
2022/01/14 00:33:46;;;;;;;31.27;18.52;;;;;;;-0.03;51.95;102804.81;2582670;23;20139;-64
2022/01/14 00:34:46;;;;;;;28.43;18.33;;;;;;;0.68;52.29;102922.00;2582912;23;20189;-64
2022/01/14 00:35:46;;;;;;;28.97;19.10;;;;;;;0.58;52.04;102933.16;2582993;23;20154;-64
2022/01/14 00:36:47;;;;;;;29.17;18.47;;;;;;;0.60;52.15;102922.72;2582555;23;20155;-63
2022/01/14 00:37:48;;;;;;;29.17;20.00;;;;;;;0.61;52.34;102927.88;2583208;23;20154;-63
2022/01/14 00:38:48;;;;;;;29.70;19.23;;;;;;;0.09;52.73;102854.13;2582980;23;20459;-63
2022/01/14 00:39:49;;;;;;;29.60;19.60;;;;;;;0.59;52.60;102929.31;2582938;23;20594;-64
2022/01/14 00:40:49;;;;;;;27.40;18.40;;;;;;;0.14;52.32;102846.66;2582781;23;20155;-63
2022/01/14 00:41:50;;;;;;;27.87;18.77;;;;;;;0.54;52.60;102922.06;2569531;23;20246;-64
2022/01/14 00:42:52;;;;;;;27.92;19.27;;;;;;;0.63;52.72;102927.56;2569661;23;20731;-63
2022/01/14 00:43:59;;;;;;;29.77;19.10;;;;;;;0.59;52.89;102930.13;2582741;23;20154;-64
2022/01/14 00:45:00;;;;;;;30.77;19.58;;;;;;;0.59;52.46;102921.13;2583033;23;20197;-63
2022/01/14 00:46:00;;;;;;;30.03;20.00;;;;;;;0.50;53.10;102923.78;2583005;23;20158;-64
2022/01/14 00:47:03;;;;;;;30.43;20.17;;;;;;;0.55;52.97;102918.22;2582771;23;20605;-64
2022/01/14 00:48:04;;;;;;;31.40;20.13;;;;;;;0.59;53.35;102924.66;2582867;23;20209;-64
2022/01/14 00:49:05;;;;;;;29.35;20.23;;;;;;;0.07;52.65;102829.91;2582536;23;20213;-64
2022/01/14 00:50:09;;;;;;;28.33;18.67;;;;;;;0.69;52.82;102926.34;2582885;23;20148;-64
2022/01/14 00:51:09;;;;;;;30.80;19.65;;;;;;;0.68;52.84;102911.88;2582703;23;20233;-63
2022/01/14 00:52:10;;;;;;;27.80;19.73;;;;;;;0.70;52.79;102923.31;2582903;23;20151;-64
2022/01/14 00:53:10;;;;;;;28.77;18.97;;;;;;;0.70;52.70;102919.75;2582272;23;20517;-64
2022/01/14 00:54:12;;;;;;;30.30;20.50;;;;;;;0.41;52.78;102875.75;2582807;23;20213;-64
2022/01/14 00:55:16;;;;;;;30.73;20.83;;;;;;;-0.20;53.26;102799.22;2582689;23;20184;-64
2022/01/14 00:59:15;;;;;;;31.05;19.48;;;;;;;0.54;53.70;102919.34;2556571;23;20226;-63
2022/01/14 01:00:17;;;;;;;31.88;19.67;;;;;;;0.54;53.49;102927.53;2569681;23;20155;-64
2022/01/14 01:01:18;;;;;;;32.08;19.95;;;;;;;0.52;53.51;102916.09;2569167;23;20540;-64
2022/01/14 01:02:19;;;;;;;31.83;20.50;;;;;;;0.59;53.66;102918.41;2569534;23;20182;-64
2022/01/14 01:03:19;;;;;;;28.90;19.90;;;;;;;-0.07;53.56;102807.34;2582910;23;20175;-63
2022/01/14 01:04:26;;;;;;;30.87;20.10;;;;;;;0.41;53.48;102878.47;2569467;23;20152;-63
2022/01/14 01:05:27;;;;;;;32.30;19.75;;;;;;;0.72;53.29;102912.09;2570938;23;20132;-63
2022/01/14 01:06:28;;;;;;;29.95;19.92;;;;;;;0.56;53.24;102889.81;2582894;23;20151;-63
2022/01/14 01:07:28;;;;;;;31.17;20.93;;;;;;;0.79;53.11;102918.72;2583107;23;20151;-64
2022/01/14 01:08:31;;;;;;;28.93;18.80;;;;;;;0.08;52.86;102814.34;2569435;23;20151;-64
2022/01/14 01:09:31;;;;;;;29.23;19.67;;;;;;;0.72;53.13;102912.09;2569960;23;20242;-63
2022/01/14 01:10:34;;;;;;;30.40;19.70;;;;;;;0.73;52.65;102919.94;2582804;23;20626;-63
2022/01/14 01:11:37;;;;;;;29.40;19.98;;;;;;;0.69;53.03;102921.69;2569479;23;20193;-64
2022/01/14 01:12:53;;;;;;;30.75;19.45;;;;;;;0.64;53.10;102908.19;2569767;23;20147;-64
2022/01/14 01:14:04;;;;;;;29.35;19.67;;;;;;;0.11;53.22;102817.25;2582787;23;20165;-63
2022/01/14 01:15:07;;;;;;;29.67;19.05;;;;;;;0.72;52.87;102907.41;2582789;23;20630;-64
2022/01/14 01:16:08;;;;;;;29.58;20.10;;;;;;;0.66;52.88;102899.66;2582880;23;20155;-63
2022/01/14 01:17:09;;;;;;;30.70;20.30;;;;;;;0.65;52.89;102907.06;2582617;23;20177;-63
2022/01/14 01:18:09;;;;;;;29.63;19.07;;;;;;;0.13;53.31;102820.50;2569536;23;20201;-63
2022/01/14 01:19:10;;;;;;;30.97;20.20;;;;;;;0.61;53.37;102906.06;2569567;23;20183;-64
2022/01/14 01:20:15;;;;;;;29.67;20.10;;;;;;;0.67;53.23;102890.38;2582817;23;20186;-63
2022/01/14 01:21:16;;;;;;;30.90;20.45;;;;;;;0.66;53.14;102881.38;2582450;23;20251;-63
2022/01/14 01:22:16;;;;;;;29.77;19.37;;;;;;;0.64;52.75;102885.53;2582512;23;20238;-63
2022/01/14 01:23:17;;;;;;;30.63;21.13;;;;;;;0.24;53.23;102840.97;2582548;23;20224;-63
2022/01/14 01:24:17;;;;;;;29.53;20.77;;;;;;;0.70;53.24;102887.00;2582696;23;20170;-63
2022/01/14 01:25:22;;;;;;;30.20;20.70;;;;;;;0.74;53.12;102896.19;2582877;23;20237;-63
2022/01/14 01:26:33;;;;;;;32.22;20.65;;;;;;;0.68;53.15;102879.13;2582664;23;20159;-63
2022/01/14 01:27:38;;;;;;;30.60;20.63;;;;;;;0.67;53.40;102882.19;2582408;23;20139;-64
2022/01/14 01:28:54;;;;;;;32.75;20.42;;;;;;;0.72;53.30;102871.94;2582759;23;20150;-64
2022/01/14 01:30:11;;;;;;;29.98;19.83;;;;;;;0.68;53.55;102868.22;2582732;23;20194;-63
2022/01/14 01:31:35;;;;;;;30.05;19.17;;;;;;;0.39;53.70;102840.59;2582710;23;20471;-63
2022/01/14 01:32:32;;;;;;;31.08;20.35;;;;;;;0.69;54.14;102869.84;2582243;23;20201;-64
2022/01/14 01:33:33;;;;;;;30.17;19.87;;;;;;;0.70;53.68;102856.97;2582598;23;20153;-63
2022/01/14 01:34:35;;;;;;;29.40;20.20;;;;;;;0.71;53.68;102862.13;2582479;23;20627;-64
2022/01/14 01:35:35;;;;;;;30.63;20.95;;;;;;;0.15;53.83;102773.81;2582785;23;20545;-63
2022/01/14 01:36:37;;;;;;;28.93;20.63;;;;;;;0.76;53.80;102864.75;2582583;23;20155;-63
2022/01/14 01:37:37;;;;;;;30.92;20.50;;;;;;;0.82;54.03;102858.03;2569078;23;20163;-64
2022/01/14 01:38:38;;;;;;;31.30;21.43;;;;;;;0.84;53.59;102858.53;2569509;23;20227;-63
2022/01/14 01:39:38;;;;;;;31.23;21.13;;;;;;;0.47;53.28;102801.63;2582646;23;20150;-63
2022/01/14 01:40:39;;;;;;;30.53;20.07;;;;;;;0.88;53.66;102855.97;2582493;23;20234;-63
2022/01/14 01:41:43;;;;;;;29.97;20.63;;;;;;;-0.10;53.22;102707.13;2582814;23;20184;-64
2022/01/14 01:42:45;;;;;;;32.47;21.02;;;;;;;0.02;53.30;102715.53;2582422;23;20177;-63
2022/01/14 01:43:51;;;;;;;32.50;21.30;;;;;;;0.94;53.46;102854.72;2569187;23;20601;-63
2022/01/14 01:44:51;;;;;;;31.70;20.85;;;;;;;0.51;53.13;102788.16;2570289;23;20136;-63
2022/01/14 01:45:54;;;;;;;31.77;20.97;;;;;;;0.91;53.21;102853.41;2582569;23;20181;-63
2022/01/14 01:46:56;;;;;;;31.05;20.90;;;;;;;0.83;53.53;102847.91;2582792;23;20479;-64
2022/01/14 01:47:56;;;;;;;29.67;19.88;;;;;;;0.84;53.40;102846.78;2582651;23;20204;-63
2022/01/14 01:48:57;;;;;;;30.03;19.97;;;;;;;0.81;53.66;102844.69;2582222;23;20155;-63
2022/01/14 01:50:06;;;;;;;28.43;20.13;;;;;;;0.03;53.26;102724.53;2582749;23;20162;-64
2022/01/14 01:51:07;;;;;;;32.00;20.70;;;;;;;0.80;53.89;102838.44;2582523;23;20466;-64
2022/01/14 01:52:07;;;;;;;31.73;21.53;;;;;;;0.82;53.45;102847.09;2582462;23;20244;-64
2022/01/14 01:53:08;;;;;;;32.73;21.43;;;;;;;0.78;53.86;102842.59;2582559;23;20482;-63
2022/01/14 01:54:09;;;;;;;32.80;20.60;;;;;;;0.70;53.71;102841.44;2582543;23;20159;-63
2022/01/14 01:55:09;;;;;;;30.40;21.40;;;;;;;0.15;54.14;102755.56;2582726;23;20620;-64
2022/01/14 01:56:10;;;;;;;31.73;21.30;;;;;;;0.54;54.11;102832.03;2582448;23;20189;-63
2022/01/14 01:57:11;;;;;;;30.73;20.77;;;;;;;-0.04;54.33;102754.94;2582477;23;20228;-63
2022/01/14 01:58:11;;;;;;;31.23;21.10;;;;;;;0.21;54.31;102784.31;2582572;23;20162;-63
2022/01/14 01:59:12;;;;;;;32.70;20.60;;;;;;;0.44;54.29;102828.72;2582523;23;20162;-63
2022/01/14 02:00:17;;;;;;;31.47;20.93;;;;;;;-0.02;54.44;102749.19;2581936;23;20155;-63
2022/01/14 02:01:18;;;;;;;29.33;19.63;;;;;;;-0.34;54.03;102694.94;2582045;23;20139;-64
2022/01/14 02:02:19;;;;;;;29.90;19.85;;;;;;;0.48;54.29;102821.53;2582503;23;20187;-63
2022/01/14 02:03:19;;;;;;;32.30;21.17;;;;;;;0.40;54.55;102816.81;2582406;23;20150;-64
2022/01/14 02:04:20;;;;;;;30.27;20.17;;;;;;;0.23;54.74;102787.53;2569092;23;20218;-63
2022/01/14 02:05:22;;;;;;;30.87;20.17;;;;;;;0.31;54.49;102799.63;2569291;23;20150;-63
2022/01/14 02:06:24;;;;;;;29.98;20.35;;;;;;;0.40;54.58;102812.19;2582629;23;20151;-63
2022/01/14 02:07:24;;;;;;;30.95;20.83;;;;;;;0.24;54.72;102791.06;2582610;23;20178;-63
2022/01/14 02:08:25;;;;;;;29.87;20.30;;;;;;;0.33;54.98;102806.38;2582647;23;20151;-63
2022/01/14 02:09:25;;;;;;;32.87;20.17;;;;;;;-0.29;54.73;102694.81;2582689;23;20237;-64
2022/01/14 02:10:26;;;;;;;29.77;19.83;;;;;;;0.41;54.77;102794.69;2582786;23;20151;-63
2022/01/14 02:11:26;;;;;;;29.77;20.60;;;;;;;0.39;54.69;102790.69;2582448;23;20217;-64
2022/01/14 02:12:36;;;;;;;28.43;19.33;;;;;;;-0.55;54.44;102631.16;2582356;23;20145;-63
2022/01/14 02:13:36;;;;;;;31.20;19.88;;;;;;;0.44;54.39;102791.38;2582402;23;20485;-63
2022/01/14 02:14:55;;;;;;;30.37;19.90;;;;;;;0.32;54.00;102807.47;2568830;23;20242;-63
2022/01/14 02:18:32;;;;;;;27.13;18.67;;;;;;;0.37;53.84;102784.72;2582809;23;20143;-63
2022/01/14 02:19:43;;;;;;;26.17;17.60;;;;;;;0.41;53.99;102794.69;2582556;23;20146;-63
2022/01/14 02:22:10;;;;;;;29.77;19.30;;;;;;;0.43;54.14;102799.84;2582657;23;20187;-63
2022/01/14 02:23:13;;;;;;;28.58;18.67;;;;;;;0.43;53.97;102794.41;2582636;23;20146;-64
2022/01/14 02:25:29;;;;;;;26.95;18.05;;;;;;;0.47;54.00;102782.53;2582603;23;20157;-64
2022/01/14 02:26:30;;;;;;;28.42;17.73;;;;;;;0.39;54.22;102772.41;2582579;23;20162;-63
2022/01/14 02:27:30;;;;;;;27.33;19.10;;;;;;;0.50;54.09;102787.38;2582670;23;20155;-64
2022/01/14 02:28:31;;;;;;;29.47;19.30;;;;;;;0.05;54.24;102736.72;2569162;23;20166;-63
2022/01/14 02:29:32;;;;;;;25.25;18.30;;;;;;;0.59;53.64;102799.16;2569199;23;20162;-63
2022/01/14 02:30:35;;;;;;;29.80;19.27;;;;;;;-0.28;53.69;102664.53;2582601;23;20153;-63
2022/01/14 02:31:35;;;;;;;29.52;19.33;;;;;;;0.51;54.27;102788.16;2582647;23;20232;-63
2022/01/14 02:32:36;;;;;;;27.13;18.33;;;;;;;0.43;54.19;102786.22;2582482;23;20153;-64
2022/01/14 02:33:37;;;;;;;31.10;18.40;;;;;;;0.30;54.09;102768.00;2582102;23;20154;-63
2022/01/14 02:34:38;;;;;;;29.63;19.53;;;;;;;0.02;54.32;102736.53;2582221;23;20446;-63
2022/01/14 02:35:40;;;;;;;29.90;19.30;;;;;;;0.38;54.30;102780.88;2582834;23;20648;-63
2022/01/14 02:36:44;;;;;;;30.38;19.90;;;;;;;0.33;54.31;102770.94;2582232;23;20150;-63
2022/01/14 02:37:45;;;;;;;28.38;18.83;;;;;;;0.11;53.94;102743.66;2582576;23;20257;-63
2022/01/14 02:38:45;;;;;;;27.85;19.08;;;;;;;0.42;54.25;102768.25;2582270;23;20159;-63
2022/01/14 02:39:47;;;;;;;28.20;18.83;;;;;;;0.29;54.26;102741.84;2581661;23;20157;-63
2022/01/14 02:40:48;;;;;;;27.67;18.08;;;;;;;0.42;54.12;102765.50;2581750;23;20221;-63
2022/01/14 02:41:51;;;;;;;29.35;18.65;;;;;;;0.42;53.90;102762.78;2582520;23;20596;-63
2022/01/14 02:42:51;;;;;;;28.42;18.58;;;;;;;-0.45;54.12;102623.53;2582479;23;20208;-63
2022/01/14 02:43:52;;;;;;;28.47;17.83;;;;;;;0.01;53.93;102675.75;2582469;23;20239;-64
2022/01/14 02:45:00;;;;;;;27.93;19.10;;;;;;;0.37;53.99;102735.63;2582266;23;20184;-64
2022/01/14 02:46:00;;;;;;;28.92;18.67;;;;;;;0.42;53.95;102754.59;2582519;23;20165;-63
2022/01/14 02:47:05;;;;;;;27.17;17.87;;;;;;;0.47;54.21;102749.00;2582717;23;20151;-63
2022/01/14 02:48:06;;;;;;;28.85;18.27;;;;;;;0.41;54.42;102742.88;2582541;23;20546;-63
2022/01/14 02:49:06;;;;;;;29.60;19.80;;;;;;;0.04;54.36;102677.88;2582487;23;20155;-64
2022/01/14 02:50:09;;;;;;;29.97;18.30;;;;;;;0.47;54.28;102746.28;2569089;23;20630;-63
2022/01/14 02:51:15;;;;;;;27.80;18.35;;;;;;;-0.59;54.28;102583.88;2569771;23;20198;-64
2022/01/14 02:52:15;;;;;;;30.80;19.70;;;;;;;0.39;54.27;102722.47;2582360;23;20157;-64
2022/01/14 02:53:28;;;;;;;28.50;18.73;;;;;;;0.46;54.41;102733.75;2582364;23;20156;-63
2022/01/14 02:54:38;;;;;;;27.58;17.13;;;;;;;0.46;54.27;102742.75;2582128;23;20551;-63
2022/01/14 02:55:43;;;;;;;28.20;17.98;;;;;;;0.11;54.44;102666.53;2582736;23;20135;-63
2022/01/14 02:56:47;;;;;;;27.52;17.80;;;;;;;0.45;54.57;102723.94;2582526;23;20156;-63
2022/01/14 02:57:52;;;;;;;27.33;18.25;;;;;;;0.42;54.27;102709.00;2581687;23;20208;-63
2022/01/14 02:58:55;;;;;;;27.00;17.63;;;;;;;0.45;54.47;102710.31;2581953;23;20225;-63
2022/01/14 02:59:58;;;;;;;29.17;18.58;;;;;;;0.49;54.82;102725.75;2582362;23;20365;-63
2022/01/14 03:01:03;;;;;;;28.30;18.60;;;;;;;0.50;54.61;102724.63;2582498;23;20166;-63
2022/01/14 03:02:08;;;;;;;27.17;17.88;;;;;;;0.47;54.58;102721.72;2582371;23;20182;-63
2022/01/14 03:03:10;;;;;;;26.52;16.63;;;;;;;0.51;54.32;102723.50;2582413;23;20644;-63
2022/01/14 03:04:14;;;;;;;28.27;18.88;;;;;;;0.55;54.50;102718.22;2582341;23;20147;-63
2022/01/14 03:05:16;;;;;;;25.98;17.80;;;;;;;0.52;54.43;102714.19;2582551;23;20151;-64
2022/01/14 03:06:16;;;;;;;25.95;17.00;;;;;;;0.44;54.65;102703.25;2582496;23;20585;-63
2022/01/14 03:07:16;;;;;;;25.30;16.90;;;;;;;0.58;54.36;102718.38;2582685;23;20494;-63
2022/01/14 03:08:19;;;;;;;27.87;17.27;;;;;;;0.59;54.57;102719.22;2582660;23;20149;-63
2022/01/14 03:09:19;;;;;;;26.90;17.50;;;;;;;0.13;54.33;102642.47;2582299;23;20154;-63
2022/01/14 03:10:20;;;;;;;27.37;17.33;;;;;;;0.58;54.69;102709.41;2582471;23;20175;-63
2022/01/14 03:11:28;;;;;;;26.97;17.40;;;;;;;-0.07;54.66;102619.28;2582402;23;20275;-63
2022/01/14 03:12:28;;;;;;;27.85;17.77;;;;;;;0.59;54.91;102711.84;2569442;23;20162;-64
2022/01/14 03:13:29;;;;;;;26.90;17.40;;;;;;;0.62;54.69;102716.66;2570016;23;20196;-63
2022/01/14 03:14:30;;;;;;;27.48;18.05;;;;;;;0.69;54.63;102725.22;2582003;23;20153;-63
2022/01/14 03:15:31;;;;;;;28.43;16.80;;;;;;;0.71;54.84;102716.69;2557595;23;20603;-64
2022/01/14 03:16:39;;;;;;;27.87;17.90;;;;;;;0.75;54.67;102723.94;2569783;23;20514;-63
2022/01/14 03:17:39;;;;;;;26.00;17.92;;;;;;;0.72;54.58;102721.81;2583538;23;20219;-63
2022/01/14 03:18:46;;;;;;;26.97;17.60;;;;;;;0.44;54.45;102660.44;2583567;23;20151;-63
2022/01/14 03:19:47;;;;;;;24.80;17.30;;;;;;;0.12;54.65;102617.13;2583259;23;20142;-64
2022/01/14 03:20:50;;;;;;;23.58;16.50;;;;;;;0.77;54.88;102709.97;2583117;23;20165;-63
2022/01/14 03:21:56;;;;;;;26.27;17.40;;;;;;;0.69;54.70;102692.47;2583176;23;20155;-64
2022/01/14 03:23:05;;;;;;;24.55;16.15;;;;;;;0.65;54.84;102687.94;2583256;23;20192;-64
2022/01/14 03:24:17;;;;;;;25.13;16.45;;;;;;;0.79;54.58;102700.34;2583208;23;20157;-63
2022/01/14 03:26:54;;;;;;;25.13;16.13;;;;;;;0.79;54.77;102694.09;2557058;23;20216;-64
2022/01/14 03:27:54;;;;;;;27.37;17.13;;;;;;;0.82;55.36;102690.72;2557137;23;20260;-64
2022/01/14 03:28:55;;;;;;;25.87;16.73;;;;;;;0.70;54.89;102676.88;2558997;23;20524;-63
2022/01/14 03:29:56;;;;;;;24.83;16.93;;;;;;;0.68;55.23;102682.63;2582558;23;20571;-63
2022/01/14 03:30:56;;;;;;;26.70;17.90;;;;;;;0.62;55.56;102685.84;2569733;23;20169;-63
2022/01/14 03:31:57;;;;;;;25.77;16.93;;;;;;;0.12;55.77;102599.97;2570205;23;20190;-63
2022/01/14 03:32:57;;;;;;;26.63;16.90;;;;;;;-0.32;55.58;102561.91;2582376;23;20617;-63
2022/01/14 03:33:58;;;;;;;26.43;16.73;;;;;;;0.67;55.86;102685.72;2582391;23;20166;-64
2022/01/14 03:34:58;;;;;;;28.17;17.53;;;;;;;0.78;55.70;102670.66;2582998;23;20179;-63
2022/01/14 03:35:59;;;;;;;23.17;16.53;;;;;;;0.63;55.79;102638.34;2583205;23;20162;-64
2022/01/14 03:37:00;;;;;;;26.17;17.27;;;;;;;0.87;55.82;102685.91;2583145;23;20155;-63
2022/01/14 03:38:00;;;;;;;26.30;16.83;;;;;;;0.84;55.91;102685.75;2583218;23;20159;-63
2022/01/14 03:39:01;;;;;;;25.57;16.53;;;;;;;0.85;56.02;102685.44;2569851;23;20235;-63
2022/01/14 03:40:03;;;;;;;24.10;16.60;;;;;;;0.62;56.31;102664.03;2569946;23;20155;-63
2022/01/14 03:41:05;;;;;;;27.50;18.35;;;;;;;-0.25;55.63;102511.31;2582843;23;20856;-63
2022/01/14 03:42:05;;;;;;;26.67;17.48;;;;;;;0.95;56.14;102682.41;2583092;23;20180;-63
2022/01/14 03:43:06;;;;;;;24.57;17.20;;;;;;;1.03;55.48;102689.00;2583228;23;20150;-63
2022/01/14 03:44:07;;;;;;;26.70;17.60;;;;;;;0.99;55.92;102691.56;2582926;23;20148;-63
2022/01/14 03:45:08;;;;;;;26.00;16.80;;;;;;;0.30;55.97;102577.09;2582252;23;20158;-63
2022/01/14 03:46:08;;;;;;;24.92;17.13;;;;;;;0.98;56.00;102691.91;2569965;23;20158;-63
2022/01/14 03:47:09;;;;;;;25.40;17.57;;;;;;;0.49;56.32;102635.72;2569775;23;20629;-63
2022/01/14 03:48:10;;;;;;;23.57;16.27;;;;;;;0.89;56.50;102680.16;2582698;23;20496;-63
2022/01/14 03:49:11;;;;;;;24.73;16.80;;;;;;;0.95;56.44;102676.94;2583212;23;20577;-63
2022/01/14 03:50:11;;;;;;;24.70;16.73;;;;;;;0.48;56.30;102600.56;2583153;23;20389;-63
2022/01/14 03:51:12;;;;;;;25.87;17.97;;;;;;;0.05;56.29;102523.28;2582923;23;20182;-63
2022/01/14 03:52:14;;;;;;;24.65;17.02;;;;;;;1.05;56.20;102678.56;2583170;23;20174;-64
2022/01/14 03:53:14;;;;;;;27.17;18.27;;;;;;;1.07;56.33;102670.84;2582956;23;20209;-63
2022/01/14 03:54:15;;;;;;;26.67;17.43;;;;;;;0.55;56.00;102587.28;2582809;23;20205;-63
2022/01/14 03:55:15;;;;;;;25.57;18.43;;;;;;;0.27;56.47;102550.47;2583075;23;20601;-64
2022/01/14 03:56:16;;;;;;;26.90;17.97;;;;;;;0.84;56.91;102651.09;2582834;23;20151;-64
2022/01/14 03:57:17;;;;;;;24.90;16.77;;;;;;;0.92;56.76;102657.66;2569769;23;20156;-63
2022/01/14 03:58:17;;;;;;;24.57;17.00;;;;;;;0.95;56.83;102655.13;2569966;23;20163;-63
2022/01/14 03:59:18;;;;;;;24.23;16.23;;;;;;;1.01;56.71;102661.22;2583068;23;20225;-64
2022/01/14 04:00:19;;;;;;;22.93;16.23;;;;;;;-0.15;56.58;102470.16;2569898;23;20160;-63
2022/01/14 04:01:20;;;;;;;22.90;16.08;;;;;;;0.56;56.75;102573.31;2569627;23;20159;-64
2022/01/14 04:02:20;;;;;;;22.77;15.77;;;;;;;0.90;56.85;102630.69;2582379;23;20179;-63
2022/01/14 04:03:21;;;;;;;23.10;15.63;;;;;;;1.09;56.76;102652.25;2583155;23;20151;-63
2022/01/14 04:04:21;;;;;;;22.00;14.77;;;;;;;1.08;56.93;102650.63;2583038;23;20182;-63
2022/01/14 04:05:22;;;;;;;24.30;15.80;;;;;;;1.09;57.03;102646.78;2583426;23;20200;-63
2022/01/14 04:06:22;;;;;;;22.80;13.93;;;;;;;0.59;57.05;102578.16;2583064;23;20178;-63
2022/01/14 04:07:23;;;;;;;24.27;15.83;;;;;;;1.06;57.24;102644.66;2583214;23;20175;-63
2022/01/14 04:08:23;;;;;;;24.10;15.63;;;;;;;0.55;57.44;102552.63;2583308;23;20491;-64
2022/01/14 04:09:24;;;;;;;25.70;16.13;;;;;;;1.00;57.53;102635.03;2583037;23;20150;-63
2022/01/14 04:10:26;;;;;;;22.70;15.67;;;;;;;0.43;57.88;102546.16;2583166;23;20146;-63
2022/01/14 04:11:26;;;;;;;22.35;15.00;;;;;;;1.03;57.84;102648.84;2582814;23;20194;-63
2022/01/14 04:12:44;;;;;;;20.33;14.17;;;;;;;0.63;58.41;102611.06;2569484;23;20155;-63
2022/01/14 04:13:53;;;;;;;22.25;14.65;;;;;;;0.05;58.46;102501.47;2573361;23;20525;-63
2022/01/14 04:15:54;;;;;;;19.97;13.60;;;;;;;0.97;58.94;102639.19;2583083;23;20674;-63
2022/01/14 04:16:57;;;;;;;20.40;13.83;;;;;;;1.02;58.85;102636.31;2583224;23;20643;-63
2022/01/14 04:17:58;;;;;;;22.48;15.38;;;;;;;0.85;58.79;102619.94;2583099;23;20150;-64
2022/01/14 04:18:59;;;;;;;19.15;13.00;;;;;;;1.03;58.96;102637.91;2569612;23;20159;-63
2022/01/14 04:19:59;;;;;;;21.60;14.93;;;;;;;1.05;59.08;102651.25;2569848;23;20167;-63
2022/01/14 04:21:00;;;;;;;23.40;14.93;;;;;;;1.06;59.54;102647.41;2582831;23;20154;-63
2022/01/14 04:22:00;;;;;;;22.63;14.43;;;;;;;0.80;59.37;102641.09;2583013;23;20175;-63
2022/01/14 04:23:02;;;;;;;20.53;14.83;;;;;;;1.02;59.35;102646.44;2582840;23;20159;-64
2022/01/14 04:24:03;;;;;;;20.55;14.18;;;;;;;0.38;59.28;102538.13;2582232;23;20159;-64
2022/01/14 04:25:04;;;;;;;21.93;15.23;;;;;;;0.93;59.56;102619.13;2582837;23;20155;-63
2022/01/14 04:26:04;;;;;;;22.47;14.97;;;;;;;0.69;59.74;102566.94;2583093;23;20192;-63
2022/01/14 04:27:05;;;;;;;20.43;13.20;;;;;;;0.46;59.69;102553.69;2582702;23;20417;-64
2022/01/14 04:28:07;;;;;;;21.30;14.17;;;;;;;0.97;59.83;102611.91;2583142;23;20204;-63
2022/01/14 04:29:07;;;;;;;21.92;14.38;;;;;;;1.10;59.83;102624.63;2582750;23;20200;-63
2022/01/14 04:30:08;;;;;;;20.93;14.03;;;;;;;0.99;59.90;102620.56;2583260;23;20178;-64
2022/01/14 04:31:10;;;;;;;20.35;13.85;;;;;;;0.99;60.11;102631.50;2582534;23;20199;-63
2022/01/14 04:32:10;;;;;;;20.75;14.52;;;;;;;0.61;60.31;102567.72;2582936;23;20175;-63
2022/01/14 04:33:11;;;;;;;18.83;13.27;;;;;;;1.13;60.37;102647.75;2582590;23;20491;-64
2022/01/14 04:34:11;;;;;;;19.77;13.87;;;;;;;1.14;60.33;102625.56;2582840;23;20162;-63
2022/01/14 04:35:12;;;;;;;22.47;13.33;;;;;;;1.13;60.53;102620.44;2583051;23;20265;-63
2022/01/14 04:36:12;;;;;;;21.13;14.10;;;;;;;0.75;60.64;102560.19;2583204;23;20644;-64
2022/01/14 04:37:13;;;;;;;19.23;11.80;;;;;;;1.19;60.46;102625.41;2582832;23;20154;-63
2022/01/14 04:38:13;;;;;;;21.87;12.90;;;;;;;1.26;60.22;102641.31;2569800;23;20159;-63
2022/01/14 04:39:14;;;;;;;21.83;14.90;;;;;;;1.17;60.46;102644.06;2569572;23;20187;-63
2022/01/14 04:40:14;;;;;;;22.77;14.43;;;;;;;1.16;60.53;102627.97;2583183;23;20145;-63
2022/01/14 04:41:15;;;;;;;21.53;13.03;;;;;;;1.14;60.97;102652.88;2582938;23;20493;-63
2022/01/14 04:42:15;;;;;;;19.70;13.00;;;;;;;0.30;60.96;102507.00;2582824;23;20206;-63
2022/01/14 04:43:19;;;;;;;21.40;14.13;;;;;;;1.21;60.85;102644.22;2583065;23;20156;-63
2022/01/14 04:44:19;;;;;;;19.17;13.68;;;;;;;1.15;60.92;102640.84;2582871;23;20151;-63
2022/01/14 04:47:45;;;;;;;24.00;15.07;;;;;;;0.33;61.12;102530.09;2583186;23;20151;-63
2022/01/14 04:48:45;;;;;;;20.20;13.82;;;;;;;0.74;61.34;102593.25;2582805;23;20229;-64
2022/01/14 04:49:46;;;;;;;19.93;14.03;;;;;;;1.15;61.45;102643.56;2583148;23;20159;-64
2022/01/14 04:50:46;;;;;;;21.20;15.00;;;;;;;1.11;61.33;102625.41;2583141;23;20482;-63
2022/01/14 04:51:47;;;;;;;21.73;13.77;;;;;;;1.23;61.42;102625.59;2582840;23;20162;-63
2022/01/14 04:52:48;;;;;;;23.53;15.70;;;;;;;0.95;61.31;102595.06;2582731;23;20158;-63
2022/01/14 04:53:49;;;;;;;22.33;14.95;;;;;;;0.93;61.20;102605.47;2582768;23;20151;-63
2022/01/14 04:54:49;;;;;;;19.70;14.73;;;;;;;0.71;61.18;102531.13;2582580;23;20230;-63
2022/01/14 04:55:51;;;;;;;22.70;14.67;;;;;;;1.32;61.25;102635.38;2582917;23;20225;-64
2022/01/14 04:56:51;;;;;;;20.48;14.75;;;;;;;1.07;61.29;102586.19;2582887;23;20158;-63
2022/01/14 04:57:53;;;;;;;19.97;14.03;;;;;;;0.91;61.08;102561.31;2582997;23;20608;-64
2022/01/14 04:58:54;;;;;;;21.38;14.45;;;;;;;0.81;61.33;102553.44;2582833;23;20593;-63
2022/01/14 04:59:54;;;;;;;20.27;13.33;;;;;;;1.31;61.40;102609.19;2583023;23;20541;-64
2022/01/14 05:00:55;;;;;;;21.10;12.87;;;;;;;1.31;61.20;102614.66;2582775;23;20155;-63
2022/01/14 05:01:57;;;;;;;19.60;13.90;;;;;;;1.33;61.19;102619.78;2569311;23;20152;-63
2022/01/14 05:02:58;;;;;;;22.45;14.15;;;;;;;0.74;61.14;102497.72;2569764;23;20621;-64
2022/01/14 05:03:59;;;;;;;20.40;14.27;;;;;;;1.10;61.10;102588.31;2582547;23;20530;-63
2022/01/14 05:05:00;;;;;;;19.88;13.93;;;;;;;1.29;61.50;102616.09;2569237;23;20152;-63
2022/01/14 05:06:02;;;;;;;22.33;13.57;;;;;;;1.32;61.16;102599.06;2569468;23;20161;-64
2022/01/14 05:07:03;;;;;;;22.10;14.48;;;;;;;0.12;61.07;102415.38;2582839;23;20683;-63